Time;durP1;ratioP1;P1;durP2;ratioP2;P2;SDS_P1;SDS_P2;PMS_P1;PMS_P2;Temp;Humidity;BMP_temperature;BMP_pressure;BME280_temperature;BME280_humidity;BME280_pressure;Samples;Min_cycle;Max_cycle;Signal;HPM_P1;HPM_P2
2021/05/23 00:01:08;;;;;;;11.32;6.75;;;;;;;;;;5023422;28;20082;-93
2021/05/23 00:03:34;;;;;;;11.25;7.10;;;;;;;;;;5033774;28;20033;-95
2021/05/23 00:06:01;;;;;;;12.27;6.85;;;;;;;;;;5029200;28;20038;-96
2021/05/23 00:08:27;;;;;;;12.85;7.35;;;;;;;;;;5021862;28;20041;-93
2021/05/23 00:10:54;;;;;;;12.07;7.00;;;;;;;;;;5037254;28;20025;-92
2021/05/23 00:13:23;;;;;;;11.43;7.00;;;;;;;;;;5037540;28;20040;-96
2021/05/23 00:15:54;;;;;;;15.52;7.38;;;;;;;;;;5035991;28;20083;-95
2021/05/23 00:18:20;;;;;;;9.00;6.18;;;;;;;;;;5044524;28;20124;-94
2021/05/23 00:20:47;;;;;;;11.77;6.90;;;;;;;;;;5043300;28;20117;-94
2021/05/23 00:23:13;;;;;;;12.75;6.50;;;;;;;;;;5040524;28;20022;-94
2021/05/23 00:25:40;;;;;;;12.60;6.82;;;;;;;;;;5033245;28;20064;-94
2021/05/23 00:28:06;;;;;;;9.95;6.45;;;;;;;;;;5038572;28;20120;-94
2021/05/23 00:30:32;;;;;;;11.02;6.80;;;;;;;;;;5052743;28;20057;-94
2021/05/23 00:32:58;;;;;;;10.63;6.90;;;;;;;;;;5035872;28;20026;-94
2021/05/23 00:35:24;;;;;;;8.35;5.57;;;;;;;;;;5031645;28;20798;-93
2021/05/23 00:37:50;;;;;;;7.97;4.45;;;;;;;;;;5041157;28;20018;-94
2021/05/23 00:40:17;;;;;;;8.68;4.68;;;;;;;;;;5039603;28;20129;-94
2021/05/23 00:42:43;;;;;;;7.00;4.30;;;;;;;;;;5044331;28;20060;-95
2021/05/23 00:45:10;;;;;;;8.23;4.65;;;;;;;;;;5039123;28;20025;-93
2021/05/23 00:47:36;;;;;;;8.18;4.30;;;;;;;;;;5043529;28;20033;-94
2021/05/23 00:50:03;;;;;;;7.40;4.47;;;;;;;;;;5029630;28;20033;-94
2021/05/23 00:52:29;;;;;;;9.48;4.20;;;;;;;;;;5042145;28;20036;-94
2021/05/23 00:54:55;;;;;;;5.90;3.60;;;;;;;;;;5051602;28;20022;-93
2021/05/23 00:57:21;;;;;;;7.68;3.33;;;;;;;;;;5037668;28;20030;-93
2021/05/23 00:59:49;;;;;;;7.35;4.80;;;;;;;;;;5044254;28;20105;-93
2021/05/23 01:02:38;;;;;;;11.07;5.50;;;;;;;;;;5043039;28;20025;-93
2021/05/23 01:05:04;;;;;;;7.72;4.53;;;;;;;;;;5036288;28;20069;-94
2021/05/23 01:07:30;;;;;;;8.13;5.00;;;;;;;;;;5044263;28;20040;-93
2021/05/23 01:09:56;;;;;;;9.95;6.00;;;;;;;;;;5047673;28;20049;-93
2021/05/23 01:12:22;;;;;;;10.02;5.65;;;;;;;;;;5047315;28;20040;-93
2021/05/23 01:14:49;;;;;;;10.13;6.00;;;;;;;;;;5040408;28;20018;-94
2021/05/23 01:17:16;;;;;;;11.00;6.00;;;;;;;;;;5021655;28;20049;-95
2021/05/23 01:20:02;;;;;;;8.75;5.57;;;;;;;;;;5017413;28;20053;-93
2021/05/23 01:22:37;;;;;;;10.00;5.35;;;;;;;;;;5019767;28;20112;-94
2021/05/23 01:25:17;;;;;;;10.30;5.75;;;;;;;;;;5035417;28;20040;-93
2021/05/23 01:27:47;;;;;;;9.25;5.13;;;;;;;;;;5051184;28;20032;-94
2021/05/23 01:30:27;;;;;;;9.10;5.15;;;;;;;;;;5042852;28;20016;-94
2021/05/23 01:32:56;;;;;;;9.90;5.07;;;;;;;;;;5048606;28;20006;-95
2021/05/23 01:35:24;;;;;;;9.57;5.03;;;;;;;;;;5044559;28;20041;-94
2021/05/23 01:37:52;;;;;;;9.93;5.05;;;;;;;;;;5054445;28;20025;-93
2021/05/23 01:40:19;;;;;;;10.45;4.82;;;;;;;;;;5043927;28;20026;-94
2021/05/23 01:42:45;;;;;;;10.13;4.78;;;;;;;;;;5041188;28;20075;-94
2021/05/23 01:45:11;;;;;;;8.43;5.15;;;;;;;;;;5043244;28;20029;-94
2021/05/23 01:47:38;;;;;;;11.50;5.00;;;;;;;;;;5036541;28;20447;-94
2021/05/23 01:50:04;;;;;;;9.88;5.07;;;;;;;;;;5045521;28;20028;-94
2021/05/23 01:52:30;;;;;;;7.32;4.85;;;;;;;;;;5017049;28;20049;-94
2021/05/23 01:54:56;;;;;;;11.00;5.20;;;;;;;;;;5048385;28;20085;-93
2021/05/23 01:57:22;;;;;;;8.90;5.30;;;;;;;;;;5036376;28;20029;-94
2021/05/23 01:59:48;;;;;;;9.35;5.57;;;;;;;;;;5032383;28;20076;-94
2021/05/23 02:02:14;;;;;;;8.40;4.68;;;;;;;;;;5045173;28;20021;-93
2021/05/23 02:04:40;;;;;;;8.95;4.10;;;;;;;;;;5038328;28;20021;-93
2021/05/23 02:07:07;;;;;;;7.88;3.50;;;;;;;;;;5031360;28;20125;-93
2021/05/23 02:09:33;;;;;;;5.93;3.63;;;;;;;;;;5026263;28;20057;-93
2021/05/23 02:11:59;;;;;;;6.72;3.78;;;;;;;;;;5042137;28;20053;-93
2021/05/23 02:14:25;;;;;;;10.75;4.85;;;;;;;;;;5042389;28;20101;-93
2021/05/23 02:16:55;;;;;;;7.18;4.55;;;;;;;;;;5048722;28;20033;-94
2021/05/23 02:19:22;;;;;;;8.95;5.10;;;;;;;;;;5023651;28;20036;-94
2021/05/23 02:21:49;;;;;;;8.48;4.70;;;;;;;;;;5042791;28;20009;-95
2021/05/23 02:24:15;;;;;;;11.05;5.10;;;;;;;;;;5047104;28;20080;-94
2021/05/23 02:26:42;;;;;;;7.75;4.43;;;;;;;;;;5037463;28;20043;-95
2021/05/23 02:29:08;;;;;;;6.90;4.22;;;;;;;;;;5036137;28;20029;-94
2021/05/23 02:31:34;;;;;;;9.38;4.55;;;;;;;;;;5023744;28;20065;-94
2021/05/23 02:34:00;;;;;;;9.05;5.00;;;;;;;;;;5040643;28;20052;-93
2021/05/23 02:36:26;;;;;;;8.45;4.43;;;;;;;;;;5028303;28;20037;-94
2021/05/23 02:38:52;;;;;;;7.53;4.30;;;;;;;;;;5032104;28;20021;-93
2021/05/23 02:41:18;;;;;;;8.25;4.78;;;;;;;;;;5044302;28;20037;-95
2021/05/23 02:43:44;;;;;;;8.80;4.80;;;;;;;;;;5036215;28;20037;-93
2021/05/23 02:46:10;;;;;;;8.35;4.50;;;;;;;;;;5035426;28;20033;-93
2021/05/23 02:48:36;;;;;;;11.52;5.07;;;;;;;;;;5019411;28;20026;-93
2021/05/23 02:51:03;;;;;;;7.35;4.88;;;;;;;;;;5025176;28;20034;-94
2021/05/23 02:53:29;;;;;;;8.40;5.53;;;;;;;;;;5033690;28;20022;-94
2021/05/23 02:55:55;;;;;;;11.52;5.40;;;;;;;;;;5040830;28;20018;-93
2021/05/23 02:58:21;;;;;;;9.00;5.20;;;;;;;;;;5016842;28;20041;-94
2021/05/23 03:00:48;;;;;;;8.63;5.13;;;;;;;;;;5034067;28;20025;-94
2021/05/23 03:03:14;;;;;;;7.63;4.90;;;;;;;;;;5031527;28;20101;-93
2021/05/23 03:05:41;;;;;;;9.95;4.75;;;;;;;;;;5026721;28;20034;-93
2021/05/23 03:08:07;;;;;;;9.18;4.68;;;;;;;;;;5041420;28;20089;-93
2021/05/23 03:10:33;;;;;;;8.05;4.70;;;;;;;;;;5019494;28;20060;-93
2021/05/23 03:13:01;;;;;;;10.48;4.78;;;;;;;;;;5028389;28;20120;-93
2021/05/23 03:15:28;;;;;;;8.02;4.63;;;;;;;;;;5033370;28;20029;-93
2021/05/23 03:17:54;;;;;;;7.22;4.20;;;;;;;;;;5038050;28;20032;-93
2021/05/23 03:20:21;;;;;;;5.55;3.53;;;;;;;;;;5040169;28;20026;-93
2021/05/23 03:22:48;;;;;;;5.90;3.20;;;;;;;;;;5042603;28;20528;-92
2021/05/23 03:25:15;;;;;;;7.28;3.53;;;;;;;;;;5039718;28;20065;-93
2021/05/23 03:27:41;;;;;;;3.95;2.58;;;;;;;;;;5027696;28;20037;-93
2021/05/23 03:30:08;;;;;;;7.18;3.20;;;;;;;;;;5024821;28;20033;-93
2021/05/23 03:32:34;;;;;;;6.15;3.55;;;;;;;;;;5020168;28;20096;-94
2021/05/23 03:35:00;;;;;;;6.20;4.00;;;;;;;;;;5019050;28;20053;-93
2021/05/23 03:37:26;;;;;;;8.18;4.47;;;;;;;;;;5041292;28;20033;-92
2021/05/23 03:39:52;;;;;;;9.27;5.75;;;;;;;;;;5043494;28;20018;-92
2021/05/23 03:42:18;;;;;;;13.18;5.07;;;;;;;;;;5024090;28;20037;-94
2021/05/23 03:44:44;;;;;;;8.80;4.43;;;;;;;;;;5021810;28;20017;-92
2021/05/23 03:47:10;;;;;;;9.60;4.50;;;;;;;;;;5037144;28;20041;-92
2021/05/23 03:49:38;;;;;;;8.13;3.70;;;;;;;;;;5020764;28;20053;-93
2021/05/23 03:52:07;;;;;;;5.45;3.17;;;;;;;;;;5039436;28;20045;-92
2021/05/23 03:54:33;;;;;;;6.70;4.38;;;;;;;;;;5030889;28;20036;-94
2021/05/23 03:56:59;;;;;;;6.97;4.40;;;;;;;;;;5019996;28;20049;-93
2021/05/23 03:59:25;;;;;;;7.32;4.38;;;;;;;;;;5032675;28;20026;-92
2021/05/23 04:01:52;;;;;;;8.45;4.07;;;;;;;;;;5017549;28;20030;-93
2021/05/23 04:04:20;;;;;;;6.22;4.05;;;;;;;;;;5034340;28;20025;-93
2021/05/23 04:06:46;;;;;;;11.40;5.10;;;;;;;;;;5038964;28;20112;-92
2021/05/23 04:09:12;;;;;;;8.60;4.65;;;;;;;;;;5048527;28;20079;-92
2021/05/23 04:11:41;;;;;;;7.40;4.55;;;;;;;;;;5050138;28;20025;-93
2021/05/23 04:14:07;;;;;;;8.43;4.95;;;;;;;;;;5056504;28;20033;-93
2021/05/23 04:16:34;;;;;;;8.50;5.00;;;;;;;;;;5041311;28;20064;-93
2021/05/23 04:19:00;;;;;;;7.70;4.97;;;;;;;;;;5048764;28;20093;-92
2021/05/23 04:21:26;;;;;;;8.90;4.65;;;;;;;;;;5044754;28;20022;-93
2021/05/23 04:23:52;;;;;;;6.93;3.97;;;;;;;;;;5041338;28;20497;-93
2021/05/23 04:26:18;;;;;;;6.20;3.17;;;;;;;;;;5038929;28;20065;-94
2021/05/23 04:28:45;;;;;;;7.43;3.20;;;;;;;;;;5040233;28;20029;-93
2021/05/23 04:31:11;;;;;;;6.50;3.40;;;;;;;;;;5045523;28;20026;-93
2021/05/23 04:33:37;;;;;;;7.13;4.18;;;;;;;;;;5034729;28;20022;-93
2021/05/23 04:36:03;;;;;;;5.07;3.35;;;;;;;;;;5028783;28;20399;-93
2021/05/23 04:38:29;;;;;;;9.20;3.55;;;;;;;;;;5028242;28;20550;-92
2021/05/23 04:40:54;;;;;;;9.43;3.55;;;;;;;;;;5023372;28;20040;-93
2021/05/23 04:43:21;;;;;;;9.70;3.88;;;;;;;;;;5037572;28;20068;-93
2021/05/23 04:45:47;;;;;;;21.15;12.35;;;;;;;;;;5036347;28;20040;-93
2021/05/23 04:48:13;;;;;;;39.17;26.85;;;;;;;;;;5044037;28;20026;-93
2021/05/23 04:50:39;;;;;;;31.23;19.92;;;;;;;;;;5042658;28;20044;-92
2021/05/23 04:53:05;;;;;;;27.50;17.77;;;;;;;;;;5034416;28;20034;-92
2021/05/23 04:55:32;;;;;;;17.42;9.82;;;;;;;;;;5014104;28;20058;-92
2021/05/23 04:57:58;;;;;;;8.93;4.60;;;;;;;;;;5035986;28;20049;-92
2021/05/23 05:00:24;;;;;;;7.18;3.95;;;;;;;;;;5031826;28;20038;-93
2021/05/23 05:02:50;;;;;;;7.85;4.15;;;;;;;;;;5049819;28;20047;-93
2021/05/23 05:05:17;;;;;;;5.65;3.70;;;;;;;;;;5043577;28;20068;-93
2021/05/23 05:07:43;;;;;;;9.27;4.07;;;;;;;;;;5037484;28;20018;-93
2021/05/23 05:10:10;;;;;;;8.45;4.20;;;;;;;;;;5044483;28;20080;-92
2021/05/23 05:12:36;;;;;;;9.02;4.60;;;;;;;;;;5026937;28;20049;-92
2021/05/23 05:15:02;;;;;;;7.53;4.68;;;;;;;;;;5033662;28;20026;-91
2021/05/23 05:17:28;;;;;;;7.32;4.78;;;;;;;;;;5050791;28;20500;-92
2021/05/23 05:19:54;;;;;;;8.80;5.78;;;;;;;;;;5043846;28;20068;-92
2021/05/23 05:22:20;;;;;;;6.55;4.43;;;;;;;;;;5036976;28;20036;-94
2021/05/23 05:24:46;;;;;;;8.30;4.43;;;;;;;;;;5028568;28;20034;-91
2021/05/23 05:27:12;;;;;;;5.40;4.10;;;;;;;;;;5039349;28;20397;-92
2021/05/23 05:29:38;;;;;;;7.78;3.40;;;;;;;;;;5028583;28;20025;-93
2021/05/23 05:32:05;;;;;;;5.38;3.30;;;;;;;;;;5045754;28;20059;-94
2021/05/23 05:34:31;;;;;;;5.45;3.28;;;;;;;;;;5044176;28;20028;-94
2021/05/23 05:36:57;;;;;;;4.65;3.00;;;;;;;;;;5026940;28;20022;-94
2021/05/23 05:39:23;;;;;;;9.60;4.00;;;;;;;;;;5032217;28;20021;-93
2021/05/23 05:41:49;;;;;;;3.72;2.60;;;;;;;;;;5041192;28;20010;-91
2021/05/23 05:44:15;;;;;;;4.25;2.40;;;;;;;;;;5041111;28;20025;-93
2021/05/23 05:46:41;;;;;;;9.65;2.60;;;;;;;;;;5058249;28;20017;-92
2021/05/23 05:49:07;;;;;;;4.60;2.50;;;;;;;;;;5056387;28;20048;-94
2021/05/23 05:51:33;;;;;;;6.72;2.47;;;;;;;;;;5032675;28;20029;-92
2021/05/23 05:53:59;;;;;;;6.07;3.33;;;;;;;;;;5029678;28;20010;-93
2021/05/23 05:56:25;;;;;;;4.32;2.88;;;;;;;;;;5039643;28;20033;-92
2021/05/23 05:58:51;;;;;;;4.20;2.58;;;;;;;;;;5040022;28;20116;-93
2021/05/23 06:01:17;;;;;;;4.70;2.63;;;;;;;;;;5040678;28;20061;-92
2021/05/23 06:03:43;;;;;;;6.13;2.72;;;;;;;;;;5028466;28;20561;-92
2021/05/23 06:06:09;;;;;;;5.20;2.20;;;;;;;;;;5035944;28;20045;-92
2021/05/23 06:08:35;;;;;;;6.18;2.20;;;;;;;;;;5037972;28;20029;-92
2021/05/23 06:11:01;;;;;;;4.80;2.13;;;;;;;;;;5042378;28;20030;-93
2021/05/23 06:13:27;;;;;;;2.33;1.80;;;;;;;;;;5034617;28;20076;-92
2021/05/23 06:15:53;;;;;;;5.95;2.20;;;;;;;;;;5041056;28;20026;-93
2021/05/23 06:18:29;;;;;;;3.35;2.33;;;;;;;;;;5043621;28;20060;-92
2021/05/23 06:20:55;;;;;;;2.30;1.60;;;;;;;;;;5042549;28;20037;-92
2021/05/23 06:23:21;;;;;;;5.47;2.05;;;;;;;;;;5030075;28;20030;-92
2021/05/23 06:25:48;;;;;;;5.15;2.10;;;;;;;;;;5023868;28;20124;-92
2021/05/23 06:28:14;;;;;;;4.57;1.77;;;;;;;;;;5017084;28;20026;-91
2021/05/23 06:30:41;;;;;;;4.82;1.90;;;;;;;;;;5039374;28;20026;-92
2021/05/23 06:33:07;;;;;;;2.78;1.30;;;;;;;;;;5030605;28;20033;-92
2021/05/23 06:35:34;;;;;;;3.20;1.63;;;;;;;;;;5043528;28;20018;-92
2021/05/23 06:38:00;;;;;;;3.67;1.85;;;;;;;;;;5031291;28;20915;-90
2021/05/23 06:40:26;;;;;;;3.72;2.45;;;;;;;;;;5033749;28;20331;-91
2021/05/23 06:42:52;;;;;;;3.08;2.15;;;;;;;;;;5039092;28;20047;-90
2021/05/23 06:45:18;;;;;;;4.97;2.00;;;;;;;;;;5044353;28;20119;-91
2021/05/23 06:47:44;;;;;;;3.75;1.70;;;;;;;;;;5026578;28;20065;-92
2021/05/23 06:50:10;;;;;;;5.13;1.70;;;;;;;;;;5026502;28;20134;-91
2021/05/23 06:52:37;;;;;;;4.25;1.70;;;;;;;;;;5044941;28;20013;-89
2021/05/23 06:55:04;;;;;;;8.02;1.67;;;;;;;;;;5048367;28;20025;-89
2021/05/23 06:57:31;;;;;;;2.50;1.73;;;;;;;;;;5027573;28;20041;-91
2021/05/23 06:59:57;;;;;;;3.97;2.17;;;;;;;;;;5024698;28;20021;-91
2021/05/23 07:02:23;;;;;;;3.03;1.80;;;;;;;;;;5033911;28;20037;-90
2021/05/23 07:04:49;;;;;;;7.55;1.20;;;;;;;;;;5036556;28;20025;-89
2021/05/23 07:07:15;;;;;;;2.45;1.42;;;;;;;;;;5046666;28;20040;-89
2021/05/23 07:09:43;;;;;;;1.80;1.30;;;;;;;;;;5047247;28;20141;-89
2021/05/23 07:12:09;;;;;;;4.97;1.40;;;;;;;;;;5025849;28;20478;-89
2021/05/23 07:14:35;;;;;;;3.53;1.40;;;;;;;;;;5032151;28;20112;-90
2021/05/23 07:17:01;;;;;;;2.58;1.40;;;;;;;;;;5031059;28;20041;-89
2021/05/23 07:19:27;;;;;;;4.95;1.33;;;;;;;;;;5048684;28;20037;-90
2021/05/23 07:21:53;;;;;;;3.50;1.40;;;;;;;;;;5032400;28;20013;-90
2021/05/23 07:24:19;;;;;;;2.83;1.27;;;;;;;;;;5038348;28;20541;-91
2021/05/23 07:26:45;;;;;;;2.95;1.20;;;;;;;;;;5029119;28;20045;-90
2021/05/23 07:29:11;;;;;;;3.95;1.10;;;;;;;;;;5035338;28;20030;-90
2021/05/23 07:31:37;;;;;;;2.97;1.48;;;;;;;;;;5041674;28;20071;-89
2021/05/23 07:34:03;;;;;;;3.50;1.35;;;;;;;;;;5048529;28;20033;-89
2021/05/23 07:36:29;;;;;;;2.40;1.35;;;;;;;;;;5046049;28;20565;-90
2021/05/23 07:38:56;;;;;;;2.08;1.30;;;;;;;;;;5029065;28;20037;-89
2021/05/23 07:41:24;;;;;;;2.67;1.30;;;;;;;;;;5029865;28;20116;-89
2021/05/23 07:43:50;;;;;;;3.13;1.20;;;;;;;;;;5029183;28;20026;-89
2021/05/23 07:46:16;;;;;;;1.45;1.13;;;;;;;;;;5036674;28;20034;-90
2021/05/23 07:48:42;;;;;;;4.28;1.30;;;;;;;;;;5032602;28;20029;-90
2021/05/23 07:51:08;;;;;;;3.35;1.30;;;;;;;;;;5025950;28;20090;-91
2021/05/23 07:53:34;;;;;;;4.07;1.08;;;;;;;;;;5041743;28;20026;-89
2021/05/23 07:56:00;;;;;;;3.72;1.10;;;;;;;;;;5042140;28;20028;-90
2021/05/23 07:58:27;;;;;;;3.28;1.10;;;;;;;;;;5034593;28;20033;-88
2021/05/23 08:00:53;;;;;;;1.70;1.27;;;;;;;;;;5031735;28;20088;-88
2021/05/23 08:03:19;;;;;;;3.40;1.10;;;;;;;;;;5036533;28;20037;-89
2021/05/23 08:05:45;;;;;;;2.42;1.10;;;;;;;;;;5028758;28;20555;-89
2021/05/23 08:08:11;;;;;;;3.58;1.30;;;;;;;;;;5031288;28;20022;-88
2021/05/23 08:10:37;;;;;;;4.22;1.20;;;;;;;;;;5034118;28;20128;-90
2021/05/23 08:13:03;;;;;;;2.97;1.45;;;;;;;;;;5042466;28;20024;-89
2021/05/23 08:15:31;;;;;;;9.45;1.63;;;;;;;;;;5037410;28;20030;-89
2021/05/23 08:17:57;;;;;;;3.80;1.60;;;;;;;;;;5029541;28;20382;-88
2021/05/23 08:20:23;;;;;;;3.20;1.50;;;;;;;;;;5032422;28;20032;-88
2021/05/23 08:22:49;;;;;;;4.15;1.30;;;;;;;;;;5042280;28;20021;-90
2021/05/23 08:25:15;;;;;;;2.08;1.30;;;;;;;;;;5043670;28;20132;-88
2021/05/23 08:27:42;;;;;;;6.30;1.13;;;;;;;;;;5035844;28;20125;-89
2021/05/23 08:30:09;;;;;;;1.05;0.95;;;;;;;;;;5031499;28;20478;-87
2021/05/23 08:32:36;;;;;;;1.20;0.95;;;;;;;;;;5030034;28;20025;-87
2021/05/23 08:35:02;;;;;;;7.35;1.20;;;;;;;;;;5034418;28;20090;-89
2021/05/23 08:37:28;;;;;;;3.90;1.25;;;;;;;;;;5036391;28;20026;-89
2021/05/23 08:39:54;;;;;;;3.15;1.20;;;;;;;;;;5039932;28;20021;-87
2021/05/23 08:42:20;;;;;;;3.45;1.27;;;;;;;;;;5044990;28;20088;-89
2021/05/23 08:44:46;;;;;;;1.92;1.08;;;;;;;;;;5033537;28;20113;-88
2021/05/23 08:47:13;;;;;;;4.45;0.90;;;;;;;;;;5033007;28;20104;-88
2021/05/23 08:49:39;;;;;;;2.30;1.08;;;;;;;;;;5039771;28;20026;-88
2021/05/23 08:52:05;;;;;;;6.20;1.23;;;;;;;;;;5038244;28;20033;-88
2021/05/23 08:54:31;;;;;;;1.40;0.75;;;;;;;;;;5032097;28;20414;-88
2021/05/23 08:56:57;;;;;;;3.95;1.00;;;;;;;;;;5031883;28;20079;-88
2021/05/23 08:59:23;;;;;;;0.95;0.70;;;;;;;;;;5043710;28;20112;-87
2021/05/23 09:01:49;;;;;;;4.88;1.08;;;;;;;;;;5035734;28;20107;-89
2021/05/23 09:04:17;;;;;;;1.38;0.90;;;;;;;;;;5036667;28;20026;-88
2021/05/23 09:06:43;;;;;;;2.90;0.80;;;;;;;;;;5041542;28;20045;-88
2021/05/23 09:09:10;;;;;;;1.52;0.80;;;;;;;;;;5046620;28;20037;-88
2021/05/23 09:11:36;;;;;;;1.65;1.10;;;;;;;;;;5041169;28;20117;-87
2021/05/23 09:14:06;;;;;;;3.20;1.00;;;;;;;;;;5031989;28;20048;-88
2021/05/23 09:16:39;;;;;;;4.28;1.42;;;;;;;;;;5037075;28;20032;-88
2021/05/23 09:19:05;;;;;;;2.50;1.33;;;;;;;;;;5048110;28;20544;-88
2021/05/23 09:21:33;;;;;;;2.55;0.90;;;;;;;;;;5033935;28;20025;-88
2021/05/23 09:24:00;;;;;;;2.10;1.05;;;;;;;;;;5048470;28;20104;-88
2021/05/23 09:26:28;;;;;;;2.47;0.65;;;;;;;;;;5039185;28;20034;-88
2021/05/23 09:28:54;;;;;;;2.45;0.93;;;;;;;;;;5043001;28;20443;-87
2021/05/23 09:31:22;;;;;;;2.75;1.20;;;;;;;;;;5040897;28;20151;-88
2021/05/23 09:33:51;;;;;;;4.70;2.38;;;;;;;;;;5032032;28;20026;-88
2021/05/23 09:36:17;;;;;;;3.30;1.27;;;;;;;;;;5047339;28;20454;-88
2021/05/23 09:38:57;;;;;;;2.75;1.27;;;;;;;;;;5037588;28;20348;-88
2021/05/23 09:41:27;;;;;;;2.80;1.30;;;;;;;;;;5039362;28;20064;-90
2021/05/23 09:44:12;;;;;;;2.08;1.10;;;;;;;;;;5043591;28;20037;-89
2021/05/23 09:47:05;;;;;;;8.43;5.22;;;;;;;;;;5033754;28;20043;-89
2021/05/23 09:49:32;;;;;;;29.25;26.40;;;;;;;;;;5030882;28;20063;-89
2021/05/23 09:51:59;;;;;;;8.30;6.33;;;;;;;;;;5032160;28;20021;-89
2021/05/23 09:54:26;;;;;;;2.88;0.90;;;;;;;;;;5046786;28;20022;-89
2021/05/23 09:56:52;;;;;;;1.88;0.90;;;;;;;;;;5050431;28;20053;-89
2021/05/23 09:59:19;;;;;;;1.88;1.10;;;;;;;;;;5045006;28;20024;-87
2021/05/23 10:01:45;;;;;;;0.52;0.40;;;;;;;;;;5049188;28;20025;-87
2021/05/23 10:04:17;;;;;;;0.20;0.20;;;;;;;;;;5035930;28;20030;-88
2021/05/23 10:06:43;;;;;;;1.27;0.30;;;;;;;;;;5031951;28;20029;-88
2021/05/23 10:09:09;;;;;;;0.80;0.30;;;;;;;;;;5032667;28;20356;-88
2021/05/23 10:11:35;;;;;;;2.15;0.43;;;;;;;;;;5030838;28;20453;-88
2021/05/23 10:14:01;;;;;;;0.20;0.20;;;;;;;;;;5033949;28;20022;-89
2021/05/23 10:16:27;;;;;;;0.28;0.15;;;;;;;;;;5038571;28;20179;-88
2021/05/23 10:18:56;;;;;;;1.25;0.30;;;;;;;;;;5034009;28;20035;-88
2021/05/23 10:21:22;;;;;;;0.22;0.10;;;;;;;;;;5031796;28;20124;-89
2021/05/23 10:23:52;;;;;;;0.22;0.20;;;;;;;;;;5031228;28;20482;-89
2021/05/23 10:26:21;;;;;;;0.50;0.30;;;;;;;;;;5038638;28;20057;-88
2021/05/23 10:28:49;;;;;;;0.65;0.25;;;;;;;;;;5033213;28;20080;-89
2021/05/23 10:31:15;;;;;;;;;;;;;;;;;;5042243;28;20041;-89
2021/05/23 10:33:53;;;;;;;0.40;0.20;;;;;;;;;;5034986;28;19905;-89
2021/05/23 10:36:29;;;;;;;0.40;0.30;;;;;;;;;;5032964;28;20025;-89
2021/05/23 10:38:56;;;;;;;0.13;0.13;;;;;;;;;;5031208;28;21668;-89
2021/05/23 10:41:22;;;;;;;0.10;0.10;;;;;;;;;;5045696;28;20025;-89
2021/05/23 10:43:56;;;;;;;0.10;0.10;;;;;;;;;;5047824;28;20060;-89
2021/05/23 10:46:22;;;;;;;0.45;0.20;;;;;;;;;;5030422;28;20037;-90
2021/05/23 10:48:55;;;;;;;0.95;0.17;;;;;;;;;;5038782;28;20017;-90
2021/05/23 10:51:22;;;;;;;0.35;0.20;;;;;;;;;;5029782;28;20033;-89
2021/05/23 10:53:48;;;;;;;0.20;0.20;;;;;;;;;;5032597;28;20018;-89
2021/05/23 10:56:32;;;;;;;0.20;0.20;;;;;;;;;;5043796;28;20034;-89
2021/05/23 10:59:02;;;;;;;0.17;0.10;;;;;;;;;;5040320;28;20053;-90
2021/05/23 11:01:37;;;;;;;0.30;0.20;;;;;;;;;;5033074;28;20455;-89
2021/05/23 11:04:19;;;;;;;0.10;0.10;;;;;;;;;;5038802;28;20038;-89
2021/05/23 11:06:46;;;;;;;0.60;0.28;;;;;;;;;;5030360;28;20065;-89
2021/05/23 11:09:16;;;;;;;0.55;0.20;;;;;;;;;;5034070;28;20042;-88
2021/05/23 11:11:43;;;;;;;0.10;0.10;;;;;;;;;;5027069;28;20036;-88
2021/05/23 11:14:23;;;;;;;0.52;0.30;;;;;;;;;;5046970;28;20017;-91
2021/05/23 11:16:54;;;;;;;0.40;0.20;;;;;;;;;;5037379;28;20059;-89
2021/05/23 11:19:20;;;;;;;0.15;0.10;;;;;;;;;;5037062;28;20026;-90
2021/05/23 11:21:48;;;;;;;0.30;0.28;;;;;;;;;;5041431;28;20022;-89
2021/05/23 11:24:14;;;;;;;0.30;0.10;;;;;;;;;;5038094;28;20034;-88
2021/05/23 11:26:40;;;;;;;1.83;0.17;;;;;;;;;;5046621;28;20033;-88
2021/05/23 11:29:07;;;;;;;0.10;0.10;;;;;;;;;;5048018;28;20025;-88
2021/05/23 11:31:35;;;;;;;0.50;0.30;;;;;;;;;;5040549;28;20021;-88
2021/05/23 11:34:01;;;;;;;0.55;0.10;;;;;;;;;;5035471;28;20014;-89
2021/05/23 11:36:28;;;;;;;0.45;0.30;;;;;;;;;;5032405;28;20034;-88
2021/05/23 11:38:55;;;;;;;0.80;0.80;;;;;;;;;;5030671;28;20013;-88
2021/05/23 11:41:28;;;;;;;0.20;0.20;;;;;;;;;;5030217;28;20271;-87
2021/05/23 11:43:56;;;;;;;1.13;0.32;;;;;;;;;;5044170;28;20037;-88
2021/05/23 11:46:22;;;;;;;1.15;0.15;;;;;;;;;;5028443;28;20030;-88
2021/05/23 11:48:49;;;;;;;0.75;0.30;;;;;;;;;;5025082;28;20038;-88
2021/05/23 11:51:19;;;;;;;0.95;0.13;;;;;;;;;;5030217;28;20037;-89
2021/05/23 11:53:46;;;;;;;1.02;0.38;;;;;;;;;;5029506;28;20018;-90
2021/05/23 11:56:26;;;;;;;1.05;0.22;;;;;;;;;;5041403;28;20026;-90
2021/05/23 11:58:53;;;;;;;2.22;0.60;;;;;;;;;;5035374;28;20063;-90
2021/05/23 12:01:25;;;;;;;0.10;0.10;;;;;;;;;;5032989;28;20462;-90
2021/05/23 12:03:59;;;;;;;0.10;0.10;;;;;;;;;;5031280;28;20029;-90
2021/05/23 12:06:25;;;;;;;0.22;0.10;;;;;;;;;;5030911;28;20077;-89
2021/05/23 12:08:51;;;;;;;0.40;0.20;;;;;;;;;;5044350;28;20040;-89
2021/05/23 12:11:17;;;;;;;0.22;0.20;;;;;;;;;;5040703;28;20026;-89
2021/05/23 12:13:44;;;;;;;0.52;0.30;;;;;;;;;;5037238;28;20038;-88
2021/05/23 12:16:11;;;;;;;0.45;0.10;;;;;;;;;;5037386;28;20025;-87
2021/05/23 12:18:58;;;;;;;0.68;0.25;;;;;;;;;;5040297;28;20112;-87
2021/05/23 12:21:30;;;;;;;1.60;0.20;;;;;;;;;;5042197;28;20537;-90
2021/05/23 12:23:56;;;;;;;0.20;0.20;;;;;;;;;;5038250;28;20528;-90
2021/05/23 12:26:24;;;;;;;1.02;0.50;;;;;;;;;;5045813;28;20037;-90
2021/05/23 12:28:51;;;;;;;0.40;0.30;;;;;;;;;;5039526;28;20017;-90
2021/05/23 12:31:18;;;;;;;0.28;0.20;;;;;;;;;;5043303;28;20029;-89
2021/05/23 12:33:51;;;;;;;0.50;0.20;;;;;;;;;;5036535;28;20081;-90
2021/05/23 12:36:18;;;;;;;0.40;0.25;;;;;;;;;;5035653;28;20033;-90
2021/05/23 12:38:56;;;;;;;0.15;0.15;;;;;;;;;;5030413;28;20037;-88
2021/05/23 12:41:33;;;;;;;1.42;0.20;;;;;;;;;;5037885;28;20561;-90
2021/05/23 12:43:59;;;;;;;0.68;0.38;;;;;;;;;;5040661;28;20044;-90
2021/05/23 12:46:25;;;;;;;0.70;0.20;;;;;;;;;;5035816;28;20402;-90
2021/05/23 12:48:51;;;;;;;1.55;0.38;;;;;;;;;;5030707;28;20026;-89
2021/05/23 12:51:18;;;;;;;0.10;0.10;;;;;;;;;;5030456;28;20428;-89
2021/05/23 12:53:48;;;;;;;2.07;0.33;;;;;;;;;;5036242;28;20021;-90
2021/05/23 12:56:16;;;;;;;0.85;0.20;;;;;;;;;;5035755;28;20102;-90
2021/05/23 12:58:42;;;;;;;;;;;;;;;;;;5030482;28;20505;-88
2021/05/23 13:01:12;;;;;;;0.30;0.10;;;;;;;;;;5024800;28;19905;-90
2021/05/23 13:03:38;;;;;;;0.28;0.20;;;;;;;;;;5028649;28;20040;-90
2021/05/23 13:06:04;;;;;;;1.23;0.13;;;;;;;;;;5035317;28;20030;-90
2021/05/23 13:08:31;;;;;;;0.20;0.20;;;;;;;;;;5031639;28;20030;-90
2021/05/23 13:10:59;;;;;;;0.20;0.20;;;;;;;;;;5047469;28;20032;-89
2021/05/23 13:13:25;;;;;;;0.80;0.40;;;;;;;;;;5031236;28;20029;-91
2021/05/23 13:15:51;;;;;;;1.10;0.50;;;;;;;;;;5028262;28;20378;-90
2021/05/23 13:18:18;;;;;;;0.90;0.40;;;;;;;;;;5027502;28;20030;-89
2021/05/23 13:20:44;;;;;;;0.30;0.20;;;;;;;;;;5042248;28;20017;-89
2021/05/23 13:23:10;;;;;;;0.30;0.20;;;;;;;;;;5031613;28;20121;-89
2021/05/23 13:25:36;;;;;;;0.43;0.20;;;;;;;;;;5040083;28;20486;-89
2021/05/23 13:28:02;;;;;;;0.22;0.20;;;;;;;;;;5033727;28;20116;-89
2021/05/23 13:30:29;;;;;;;0.25;0.20;;;;;;;;;;5032195;28;20371;-90
2021/05/23 13:32:57;;;;;;;0.25;0.10;;;;;;;;;;5034081;28;21588;-90
2021/05/23 13:35:23;;;;;;;0.22;0.20;;;;;;;;;;5046350;28;20025;-89
2021/05/23 13:37:53;;;;;;;0.10;0.10;;;;;;;;;;5043020;28;20505;-89
2021/05/23 13:40:19;;;;;;;0.68;0.22;;;;;;;;;;5039012;28;20021;-89
2021/05/23 13:42:48;;;;;;;1.50;0.40;;;;;;;;;;5040149;28;20025;-89
2021/05/23 13:45:14;;;;;;;1.45;0.50;;;;;;;;;;5042085;28;20393;-90
2021/05/23 13:47:40;;;;;;;0.20;0.20;;;;;;;;;;5040268;28;20068;-89
2021/05/23 13:50:06;;;;;;;0.30;0.20;;;;;;;;;;5039419;28;20041;-89
2021/05/23 13:52:32;;;;;;;1.35;0.28;;;;;;;;;;5040243;28;20033;-89
2021/05/23 13:54:58;;;;;;;0.30;0.30;;;;;;;;;;5039308;28;20470;-88
2021/05/23 13:57:24;;;;;;;2.80;0.30;;;;;;;;;;5033726;28;20079;-89
2021/05/23 13:59:50;;;;;;;0.35;0.30;;;;;;;;;;5036408;28;20029;-89
2021/05/23 14:02:17;;;;;;;0.68;0.32;;;;;;;;;;5041306;28;20057;-89
2021/05/23 14:04:43;;;;;;;2.22;0.30;;;;;;;;;;5038161;28;20060;-88
2021/05/23 14:07:09;;;;;;;0.20;0.20;;;;;;;;;;5032084;28;20045;-89
2021/05/23 14:09:35;;;;;;;0.30;0.10;;;;;;;;;;5030260;28;20107;-89
2021/05/23 14:12:02;;;;;;;3.88;0.38;;;;;;;;;;5043936;28;20021;-89
2021/05/23 14:14:28;;;;;;;0.40;0.30;;;;;;;;;;5051649;28;20106;-88
2021/05/23 14:16:54;;;;;;;2.17;0.30;;;;;;;;;;5051430;28;20085;-87
2021/05/23 14:19:20;;;;;;;0.80;0.30;;;;;;;;;;5037651;28;20381;-90
2021/05/23 14:21:46;;;;;;;0.85;0.22;;;;;;;;;;5030447;28;20033;-89
2021/05/23 14:24:13;;;;;;;2.65;0.40;;;;;;;;;;5044734;28;20029;-89
2021/05/23 14:26:38;;;;;;;1.00;0.30;;;;;;;;;;5050124;28;20029;-89
2021/05/23 14:29:05;;;;;;;0.40;0.13;;;;;;;;;;5043263;28;20036;-89
2021/05/23 14:31:31;;;;;;;2.88;0.30;;;;;;;;;;5050425;28;20033;-89
2021/05/23 14:33:57;;;;;;;0.93;0.40;;;;;;;;;;5035889;28;20056;-89
2021/05/23 14:36:23;;;;;;;1.17;0.35;;;;;;;;;;5040439;28;20268;-89
2021/05/23 14:38:50;;;;;;;2.85;0.38;;;;;;;;;;5032623;28;20097;-89
2021/05/23 14:41:16;;;;;;;0.80;0.40;;;;;;;;;;5037086;28;20037;-89
2021/05/23 14:43:42;;;;;;;0.77;0.30;;;;;;;;;;5043260;28;20361;-89